sensor_id;sensor_type;location;lat;lon;timestamp;temperature;humidity
10042;DHT22;5061;49.068;12.058;2022-12-07T00:00:17;2.40;99.90
10042;DHT22;5061;49.068;12.058;2022-12-07T00:03:39;2.40;99.90
10042;DHT22;5061;49.068;12.058;2022-12-07T00:07:00;2.40;99.90
10042;DHT22;5061;49.068;12.058;2022-12-07T00:10:20;2.50;99.90
10042;DHT22;5061;49.068;12.058;2022-12-07T00:13:41;2.40;99.90
10042;DHT22;5061;49.068;12.058;2022-12-07T00:17:02;2.40;99.90
10042;DHT22;5061;49.068;12.058;2022-12-07T00:20:22;2.40;99.90
10042;DHT22;5061;49.068;12.058;2022-12-07T00:23:44;2.40;99.90
10042;DHT22;5061;49.068;12.058;2022-12-07T00:27:05;2.40;99.90
10042;DHT22;5061;49.068;12.058;2022-12-07T00:30:25;2.40;99.90
10042;DHT22;5061;49.068;12.058;2022-12-07T00:33:46;2.30;99.90
10042;DHT22;5061;49.068;12.058;2022-12-07T00:37:07;2.30;99.90
10042;DHT22;5061;49.068;12.058;2022-12-07T00:40:28;2.30;99.90
10042;DHT22;5061;49.068;12.058;2022-12-07T00:43:49;2.30;99.90
10042;DHT22;5061;49.068;12.058;2022-12-07T00:47:10;2.30;99.90
10042;DHT22;5061;49.068;12.058;2022-12-07T00:50:31;2.20;99.90
10042;DHT22;5061;49.068;12.058;2022-12-07T00:53:52;2.20;99.90
10042;DHT22;5061;49.068;12.058;2022-12-07T00:57:13;2.20;99.90
10042;DHT22;5061;49.068;12.058;2022-12-07T01:00:36;2.20;99.90
10042;DHT22;5061;49.068;12.058;2022-12-07T01:03:57;2.20;99.90
10042;DHT22;5061;49.068;12.058;2022-12-07T01:07:17;2.10;99.90
10042;DHT22;5061;49.068;12.058;2022-12-07T01:10:38;2.10;99.90
10042;DHT22;5061;49.068;12.058;2022-12-07T01:14:00;2.10;99.90
10042;DHT22;5061;49.068;12.058;2022-12-07T01:17:21;2.10;99.90
10042;DHT22;5061;49.068;12.058;2022-12-07T01:20:41;2.10;99.90
10042;DHT22;5061;49.068;12.058;2022-12-07T01:24:06;2.10;99.90
10042;DHT22;5061;49.068;12.058;2022-12-07T01:27:27;2.00;99.90
10042;DHT22;5061;49.068;12.058;2022-12-07T01:31:08;2.10;99.90
10042;DHT22;5061;49.068;12.058;2022-12-07T01:34:32;2.00;99.90
10042;DHT22;5061;49.068;12.058;2022-12-07T01:37:53;2.10;99.90
10042;DHT22;5061;49.068;12.058;2022-12-07T01:41:14;2.10;99.90
10042;DHT22;5061;49.068;12.058;2022-12-07T01:48:40;2.00;99.90
10042;DHT22;5061;49.068;12.058;2022-12-07T01:55:40;2.00;99.90
10042;DHT22;5061;49.068;12.058;2022-12-07T01:59:01;2.00;99.90
10042;DHT22;5061;49.068;12.058;2022-12-07T02:02:27;1.90;99.90
10042;DHT22;5061;49.068;12.058;2022-12-07T02:05:49;2.00;99.90
10042;DHT22;5061;49.068;12.058;2022-12-07T02:09:10;1.90;99.90
10042;DHT22;5061;49.068;12.058;2022-12-07T02:12:31;1.90;99.90
10042;DHT22;5061;49.068;12.058;2022-12-07T02:24:11;1.90;99.90
10042;DHT22;5061;49.068;12.058;2022-12-07T02:27:26;2.00;99.90
10042;DHT22;5061;49.068;12.058;2022-12-07T02:30:49;2.00;99.90
10042;DHT22;5061;49.068;12.058;2022-12-07T02:34:22;2.00;99.90
10042;DHT22;5061;49.068;12.058;2022-12-07T02:41:42;2.00;99.90
10042;DHT22;5061;49.068;12.058;2022-12-07T02:45:05;1.90;99.90
10042;DHT22;5061;49.068;12.058;2022-12-07T02:48:27;1.90;99.90
10042;DHT22;5061;49.068;12.058;2022-12-07T02:51:48;1.90;99.90
10042;DHT22;5061;49.068;12.058;2022-12-07T02:55:09;1.90;99.90
10042;DHT22;5061;49.068;12.058;2022-12-07T02:58:36;2.00;99.90
10042;DHT22;5061;49.068;12.058;2022-12-07T03:16:35;1.90;99.90
10042;DHT22;5061;49.068;12.058;2022-12-07T03:19:58;1.80;99.90
10042;DHT22;5061;49.068;12.058;2022-12-07T03:23:23;1.80;99.90
10042;DHT22;5061;49.068;12.058;2022-12-07T03:26:55;1.80;99.90
10042;DHT22;5061;49.068;12.058;2022-12-07T03:30:21;1.90;99.90
10042;DHT22;5061;49.068;12.058;2022-12-07T03:37:26;1.80;99.90
10042;DHT22;5061;49.068;12.058;2022-12-07T03:41:12;1.90;99.90
10042;DHT22;5061;49.068;12.058;2022-12-07T03:44:36;1.90;99.90
10042;DHT22;5061;49.068;12.058;2022-12-07T03:55:41;1.80;99.90
10042;DHT22;5061;49.068;12.058;2022-12-07T03:59:03;1.80;99.90
10042;DHT22;5061;49.068;12.058;2022-12-07T04:02:25;1.80;99.90
10042;DHT22;5061;49.068;12.058;2022-12-07T04:05:47;1.80;99.90
10042;DHT22;5061;49.068;12.058;2022-12-07T04:09:10;1.80;99.90
10042;DHT22;5061;49.068;12.058;2022-12-07T04:12:30;1.80;99.90
10042;DHT22;5061;49.068;12.058;2022-12-07T04:15:51;1.80;99.90
10042;DHT22;5061;49.068;12.058;2022-12-07T04:19:12;1.80;99.90
10042;DHT22;5061;49.068;12.058;2022-12-07T04:22:33;1.80;99.90
10042;DHT22;5061;49.068;12.058;2022-12-07T04:25:53;1.80;99.90
10042;DHT22;5061;49.068;12.058;2022-12-07T04:29:15;1.80;99.90
10042;DHT22;5061;49.068;12.058;2022-12-07T04:32:36;1.80;99.90
10042;DHT22;5061;49.068;12.058;2022-12-07T04:35:56;1.80;99.90
10042;DHT22;5061;49.068;12.058;2022-12-07T04:39:21;1.80;99.90
10042;DHT22;5061;49.068;12.058;2022-12-07T04:42:41;1.80;99.90
10042;DHT22;5061;49.068;12.058;2022-12-07T04:46:05;1.80;99.90
10042;DHT22;5061;49.068;12.058;2022-12-07T04:49:25;1.80;99.90
10042;DHT22;5061;49.068;12.058;2022-12-07T04:52:46;1.70;99.90
10042;DHT22;5061;49.068;12.058;2022-12-07T04:56:06;1.70;99.90
10042;DHT22;5061;49.068;12.058;2022-12-07T04:59:27;1.70;99.90
10042;DHT22;5061;49.068;12.058;2022-12-07T05:02:48;1.70;99.90
10042;DHT22;5061;49.068;12.058;2022-12-07T05:06:09;1.70;99.90
10042;DHT22;5061;49.068;12.058;2022-12-07T05:09:30;1.70;99.90
10042;DHT22;5061;49.068;12.058;2022-12-07T05:12:51;1.70;99.90
10042;DHT22;5061;49.068;12.058;2022-12-07T05:16:11;1.60;99.90
10042;DHT22;5061;49.068;12.058;2022-12-07T05:19:32;1.60;99.90
10042;DHT22;5061;49.068;12.058;2022-12-07T05:22:52;1.50;99.90
10042;DHT22;5061;49.068;12.058;2022-12-07T05:26:16;1.40;99.90
10042;DHT22;5061;49.068;12.058;2022-12-07T05:29:37;1.40;99.90
10042;DHT22;5061;49.068;12.058;2022-12-07T05:32:58;1.40;99.90
10042;DHT22;5061;49.068;12.058;2022-12-07T05:36:19;1.30;99.90
10042;DHT22;5061;49.068;12.058;2022-12-07T05:39:40;1.30;99.90
10042;DHT22;5061;49.068;12.058;2022-12-07T05:43:03;1.20;99.90
10042;DHT22;5061;49.068;12.058;2022-12-07T05:46:23;1.20;99.90
10042;DHT22;5061;49.068;12.058;2022-12-07T05:49:44;1.10;99.90
10042;DHT22;5061;49.068;12.058;2022-12-07T05:53:05;1.00;99.90
10042;DHT22;5061;49.068;12.058;2022-12-07T05:56:25;1.00;99.90
10042;DHT22;5061;49.068;12.058;2022-12-07T05:59:47;0.90;99.90
10042;DHT22;5061;49.068;12.058;2022-12-07T06:03:07;0.80;99.90
10042;DHT22;5061;49.068;12.058;2022-12-07T06:06:28;0.80;99.90
10042;DHT22;5061;49.068;12.058;2022-12-07T06:09:49;0.70;99.90
10042;DHT22;5061;49.068;12.058;2022-12-07T06:13:10;0.70;99.90
10042;DHT22;5061;49.068;12.058;2022-12-07T06:16:30;0.60;99.90
10042;DHT22;5061;49.068;12.058;2022-12-07T06:19:51;0.60;99.90
10042;DHT22;5061;49.068;12.058;2022-12-07T06:23:14;0.60;99.90
10042;DHT22;5061;49.068;12.058;2022-12-07T06:26:35;0.60;99.90
10042;DHT22;5061;49.068;12.058;2022-12-07T06:29:55;0.60;99.90
10042;DHT22;5061;49.068;12.058;2022-12-07T06:33:16;0.60;99.90
10042;DHT22;5061;49.068;12.058;2022-12-07T06:36:37;0.70;99.90
10042;DHT22;5061;49.068;12.058;2022-12-07T06:39:57;0.70;99.90
10042;DHT22;5061;49.068;12.058;2022-12-07T06:43:18;0.70;99.90
10042;DHT22;5061;49.068;12.058;2022-12-07T06:46:39;0.70;99.90
10042;DHT22;5061;49.068;12.058;2022-12-07T06:49:59;0.70;99.90
10042;DHT22;5061;49.068;12.058;2022-12-07T06:53:20;0.60;99.90
10042;DHT22;5061;49.068;12.058;2022-12-07T06:56:41;0.60;99.90
10042;DHT22;5061;49.068;12.058;2022-12-07T07:00:03;0.60;99.90
10042;DHT22;5061;49.068;12.058;2022-12-07T07:03:24;0.60;99.90
10042;DHT22;5061;49.068;12.058;2022-12-07T07:06:44;0.60;99.90
10042;DHT22;5061;49.068;12.058;2022-12-07T07:10:05;0.60;99.90
10042;DHT22;5061;49.068;12.058;2022-12-07T07:13:26;0.60;99.90
10042;DHT22;5061;49.068;12.058;2022-12-07T07:16:47;0.60;99.90
10042;DHT22;5061;49.068;12.058;2022-12-07T07:20:08;0.70;99.90
10042;DHT22;5061;49.068;12.058;2022-12-07T07:23:29;0.70;99.90
10042;DHT22;5061;49.068;12.058;2022-12-07T07:26:50;0.70;99.90
10042;DHT22;5061;49.068;12.058;2022-12-07T07:30:11;0.70;99.90
10042;DHT22;5061;49.068;12.058;2022-12-07T07:33:32;0.80;99.90
10042;DHT22;5061;49.068;12.058;2022-12-07T07:36:52;0.80;99.90
10042;DHT22;5061;49.068;12.058;2022-12-07T07:40:13;0.90;99.90
10042;DHT22;5061;49.068;12.058;2022-12-07T07:43:34;0.90;99.90
10042;DHT22;5061;49.068;12.058;2022-12-07T07:46:54;1.00;99.90
10042;DHT22;5061;49.068;12.058;2022-12-07T07:50:15;1.00;99.90
10042;DHT22;5061;49.068;12.058;2022-12-07T07:53:36;1.00;99.90
10042;DHT22;5061;49.068;12.058;2022-12-07T07:56:57;1.10;99.90
10042;DHT22;5061;49.068;12.058;2022-12-07T08:00:18;1.10;99.90
10042;DHT22;5061;49.068;12.058;2022-12-07T08:03:40;1.10;99.90
10042;DHT22;5061;49.068;12.058;2022-12-07T08:07:01;1.10;99.90
10042;DHT22;5061;49.068;12.058;2022-12-07T08:10:22;1.10;99.90
10042;DHT22;5061;49.068;12.058;2022-12-07T08:13:45;1.10;99.90
10042;DHT22;5061;49.068;12.058;2022-12-07T08:17:07;1.10;99.90
10042;DHT22;5061;49.068;12.058;2022-12-07T08:20:33;1.10;99.90
10042;DHT22;5061;49.068;12.058;2022-12-07T08:23:54;1.10;99.90
10042;DHT22;5061;49.068;12.058;2022-12-07T08:27:15;1.10;99.90
10042;DHT22;5061;49.068;12.058;2022-12-07T08:30:35;1.10;99.90
10042;DHT22;5061;49.068;12.058;2022-12-07T08:33:59;1.20;99.90
10042;DHT22;5061;49.068;12.058;2022-12-07T08:37:19;1.20;99.90
10042;DHT22;5061;49.068;12.058;2022-12-07T08:40:40;1.20;99.90
10042;DHT22;5061;49.068;12.058;2022-12-07T08:44:04;1.20;99.90
10042;DHT22;5061;49.068;12.058;2022-12-07T08:47:28;1.30;99.90
10042;DHT22;5061;49.068;12.058;2022-12-07T08:50:52;1.30;99.90
10042;DHT22;5061;49.068;12.058;2022-12-07T08:54:15;1.30;99.90
10042;DHT22;5061;49.068;12.058;2022-12-07T08:57:37;1.30;99.90
10042;DHT22;5061;49.068;12.058;2022-12-07T09:00:58;1.40;99.90
10042;DHT22;5061;49.068;12.058;2022-12-07T09:04:19;1.40;99.90
10042;DHT22;5061;49.068;12.058;2022-12-07T09:08:00;1.40;99.90
10042;DHT22;5061;49.068;12.058;2022-12-07T09:11:21;1.50;99.90
10042;DHT22;5061;49.068;12.058;2022-12-07T09:14:44;1.50;99.90
10042;DHT22;5061;49.068;12.058;2022-12-07T09:18:05;1.50;99.90
10042;DHT22;5061;49.068;12.058;2022-12-07T09:21:26;1.60;99.90
10042;DHT22;5061;49.068;12.058;2022-12-07T09:24:46;1.60;99.90
10042;DHT22;5061;49.068;12.058;2022-12-07T09:28:07;1.60;99.90
10042;DHT22;5061;49.068;12.058;2022-12-07T09:31:28;1.70;99.90
10042;DHT22;5061;49.068;12.058;2022-12-07T09:34:49;1.70;99.90
10042;DHT22;5061;49.068;12.058;2022-12-07T09:38:12;1.80;99.90
10042;DHT22;5061;49.068;12.058;2022-12-07T09:41:40;1.80;99.90
10042;DHT22;5061;49.068;12.058;2022-12-07T09:45:05;1.90;99.90
10042;DHT22;5061;49.068;12.058;2022-12-07T09:48:34;1.90;99.90
10042;DHT22;5061;49.068;12.058;2022-12-07T09:55:28;2.00;99.90
10042;DHT22;5061;49.068;12.058;2022-12-07T09:58:50;2.10;99.90
10042;DHT22;5061;49.068;12.058;2022-12-07T10:02:35;2.10;99.90
10042;DHT22;5061;49.068;12.058;2022-12-07T10:05:56;2.10;99.90
10042;DHT22;5061;49.068;12.058;2022-12-07T10:09:20;2.20;99.90
10042;DHT22;5061;49.068;12.058;2022-12-07T10:12:56;2.20;99.90
10042;DHT22;5061;49.068;12.058;2022-12-07T10:16:40;2.20;99.90
10042;DHT22;5061;49.068;12.058;2022-12-07T10:20:21;2.20;99.90
10042;DHT22;5061;49.068;12.058;2022-12-07T10:27:32;2.30;99.90
10042;DHT22;5061;49.068;12.058;2022-12-07T10:30:59;2.30;99.90
10042;DHT22;5061;49.068;12.058;2022-12-07T10:37:44;2.40;99.90
10042;DHT22;5061;49.068;12.058;2022-12-07T10:41:07;2.40;99.90
10042;DHT22;5061;49.068;12.058;2022-12-07T10:44:33;2.50;99.90
10042;DHT22;5061;49.068;12.058;2022-12-07T10:51:55;2.50;99.90
10042;DHT22;5061;49.068;12.058;2022-12-07T10:55:41;2.60;99.90
10042;DHT22;5061;49.068;12.058;2022-12-07T11:07:01;2.70;99.90
10042;DHT22;5061;49.068;12.058;2022-12-07T11:14:28;2.80;99.90
10042;DHT22;5061;49.068;12.058;2022-12-07T11:21:20;2.80;99.90
10042;DHT22;5061;49.068;12.058;2022-12-07T11:24:47;2.80;99.90
10042;DHT22;5061;49.068;12.058;2022-12-07T11:36:08;2.90;99.90
10042;DHT22;5061;49.068;12.058;2022-12-07T11:39:50;2.90;99.90
10042;DHT22;5061;49.068;12.058;2022-12-07T11:43:28;2.90;99.90
10042;DHT22;5061;49.068;12.058;2022-12-07T11:47:05;3.00;99.90
10042;DHT22;5061;49.068;12.058;2022-12-07T11:50:34;3.00;99.90
10042;DHT22;5061;49.068;12.058;2022-12-07T11:54:03;3.00;99.90
10042;DHT22;5061;49.068;12.058;2022-12-07T11:57:38;3.00;99.90
10042;DHT22;5061;49.068;12.058;2022-12-07T12:05:02;3.00;99.90
10042;DHT22;5061;49.068;12.058;2022-12-07T12:08:39;3.00;99.90
10042;DHT22;5061;49.068;12.058;2022-12-07T12:26:35;3.10;99.90
10042;DHT22;5061;49.068;12.058;2022-12-07T12:30:00;3.10;99.90
10042;DHT22;5061;49.068;12.058;2022-12-07T12:33:28;3.20;99.90
10042;DHT22;5061;49.068;12.058;2022-12-07T12:36:49;3.10;99.90
10042;DHT22;5061;49.068;12.058;2022-12-07T12:43:51;3.10;99.90
10042;DHT22;5061;49.068;12.058;2022-12-07T12:47:42;3.00;99.90
10042;DHT22;5061;49.068;12.058;2022-12-07T12:55:26;3.00;99.90
10042;DHT22;5061;49.068;12.058;2022-12-07T12:58:43;3.00;99.90
10042;DHT22;5061;49.068;12.058;2022-12-07T13:05:41;3.00;99.90
10042;DHT22;5061;49.068;12.058;2022-12-07T13:09:02;3.00;99.90
10042;DHT22;5061;49.068;12.058;2022-12-07T13:12:25;3.00;99.90
10042;DHT22;5061;49.068;12.058;2022-12-07T13:23:02;3.00;99.90
10042;DHT22;5061;49.068;12.058;2022-12-07T13:29:56;3.00;99.90
10042;DHT22;5061;49.068;12.058;2022-12-07T13:33:18;3.00;99.90
10042;DHT22;5061;49.068;12.058;2022-12-07T13:36:43;3.00;99.90
10042;DHT22;5061;49.068;12.058;2022-12-07T13:40:20;2.90;99.90
10042;DHT22;5061;49.068;12.058;2022-12-07T13:43:52;3.00;99.90
10042;DHT22;5061;49.068;12.058;2022-12-07T13:51:28;3.00;99.90
10042;DHT22;5061;49.068;12.058;2022-12-07T13:58:17;3.00;99.90
10042;DHT22;5061;49.068;12.058;2022-12-07T14:01:37;3.00;99.90
10042;DHT22;5061;49.068;12.058;2022-12-07T14:05:31;3.00;99.90
10042;DHT22;5061;49.068;12.058;2022-12-07T14:08:50;3.00;99.90
10042;DHT22;5061;49.068;12.058;2022-12-07T14:12:12;3.00;99.90
10042;DHT22;5061;49.068;12.058;2022-12-07T14:15:34;3.00;99.90
10042;DHT22;5061;49.068;12.058;2022-12-07T14:19:01;3.10;99.90
10042;DHT22;5061;49.068;12.058;2022-12-07T14:25:47;3.10;99.90
10042;DHT22;5061;49.068;12.058;2022-12-07T14:29:32;3.10;99.90
10042;DHT22;5061;49.068;12.058;2022-12-07T14:32:57;3.10;99.90
10042;DHT22;5061;49.068;12.058;2022-12-07T14:36:18;3.10;99.90
10042;DHT22;5061;49.068;12.058;2022-12-07T14:39:39;3.10;99.90
10042;DHT22;5061;49.068;12.058;2022-12-07T14:43:12;3.10;99.90
10042;DHT22;5061;49.068;12.058;2022-12-07T14:46:34;3.00;99.90
10042;DHT22;5061;49.068;12.058;2022-12-07T14:49:58;3.00;99.90
10042;DHT22;5061;49.068;12.058;2022-12-07T14:53:24;3.00;99.90
10042;DHT22;5061;49.068;12.058;2022-12-07T14:56:47;3.00;99.90
10042;DHT22;5061;49.068;12.058;2022-12-07T15:00:15;2.90;99.90
10042;DHT22;5061;49.068;12.058;2022-12-07T15:03:37;2.90;99.90
10042;DHT22;5061;49.068;12.058;2022-12-07T15:07:01;2.90;99.90
10042;DHT22;5061;49.068;12.058;2022-12-07T15:10:26;2.90;99.90
10042;DHT22;5061;49.068;12.058;2022-12-07T15:13:55;2.80;99.90
10042;DHT22;5061;49.068;12.058;2022-12-07T15:17:34;2.80;99.90
10042;DHT22;5061;49.068;12.058;2022-12-07T15:20:58;2.80;99.90
10042;DHT22;5061;49.068;12.058;2022-12-07T15:24:19;2.80;99.90
10042;DHT22;5061;49.068;12.058;2022-12-07T15:27:40;2.70;99.90
10042;DHT22;5061;49.068;12.058;2022-12-07T15:31:01;2.70;99.90
10042;DHT22;5061;49.068;12.058;2022-12-07T15:34:24;2.70;99.90
10042;DHT22;5061;49.068;12.058;2022-12-07T15:37:45;2.70;99.90
10042;DHT22;5061;49.068;12.058;2022-12-07T15:41:06;2.60;99.90
10042;DHT22;5061;49.068;12.058;2022-12-07T15:44:27;2.60;99.90
10042;DHT22;5061;49.068;12.058;2022-12-07T15:48:06;2.60;99.90
10042;DHT22;5061;49.068;12.058;2022-12-07T15:51:27;2.50;99.90
10042;DHT22;5061;49.068;12.058;2022-12-07T15:54:48;2.50;99.90
10042;DHT22;5061;49.068;12.058;2022-12-07T15:58:09;2.50;99.90
10042;DHT22;5061;49.068;12.058;2022-12-07T16:01:29;2.50;99.90
10042;DHT22;5061;49.068;12.058;2022-12-07T16:04:51;2.40;99.90
10042;DHT22;5061;49.068;12.058;2022-12-07T16:08:11;2.50;99.90
10042;DHT22;5061;49.068;12.058;2022-12-07T16:11:33;2.40;99.90
10042;DHT22;5061;49.068;12.058;2022-12-07T16:14:54;2.40;99.90
10042;DHT22;5061;49.068;12.058;2022-12-07T16:18:15;2.40;99.90
10042;DHT22;5061;49.068;12.058;2022-12-07T16:21:35;2.40;99.90
10042;DHT22;5061;49.068;12.058;2022-12-07T16:24:56;2.40;99.90
10042;DHT22;5061;49.068;12.058;2022-12-07T16:28:17;2.40;99.90
10042;DHT22;5061;49.068;12.058;2022-12-07T16:31:37;2.40;99.90
10042;DHT22;5061;49.068;12.058;2022-12-07T16:34:58;2.30;99.90
10042;DHT22;5061;49.068;12.058;2022-12-07T16:38:19;2.40;99.90
10042;DHT22;5061;49.068;12.058;2022-12-07T16:41:39;2.40;99.90
10042;DHT22;5061;49.068;12.058;2022-12-07T16:45:00;2.40;99.90
10042;DHT22;5061;49.068;12.058;2022-12-07T16:48:24;2.40;99.90
10042;DHT22;5061;49.068;12.058;2022-12-07T16:51:45;2.30;99.90
10042;DHT22;5061;49.068;12.058;2022-12-07T16:55:07;2.40;99.90
10042;DHT22;5061;49.068;12.058;2022-12-07T16:58:28;2.40;99.90
10042;DHT22;5061;49.068;12.058;2022-12-07T17:01:49;2.40;99.90
10042;DHT22;5061;49.068;12.058;2022-12-07T17:05:09;2.30;99.90
10042;DHT22;5061;49.068;12.058;2022-12-07T17:08:30;2.30;99.90
10042;DHT22;5061;49.068;12.058;2022-12-07T17:11:50;2.30;99.90
10042;DHT22;5061;49.068;12.058;2022-12-07T17:15:11;2.30;99.90
10042;DHT22;5061;49.068;12.058;2022-12-07T17:18:38;2.30;99.90
10042;DHT22;5061;49.068;12.058;2022-12-07T17:21:58;2.30;99.90
10042;DHT22;5061;49.068;12.058;2022-12-07T17:25:20;2.30;99.90
10042;DHT22;5061;49.068;12.058;2022-12-07T17:28:41;2.30;99.90
10042;DHT22;5061;49.068;12.058;2022-12-07T17:32:02;2.30;99.90
10042;DHT22;5061;49.068;12.058;2022-12-07T17:35:22;2.30;99.90
10042;DHT22;5061;49.068;12.058;2022-12-07T17:38:43;2.30;99.90
10042;DHT22;5061;49.068;12.058;2022-12-07T17:42:04;2.30;99.90
10042;DHT22;5061;49.068;12.058;2022-12-07T17:45:43;2.30;99.90
10042;DHT22;5061;49.068;12.058;2022-12-07T17:49:05;2.30;99.90
10042;DHT22;5061;49.068;12.058;2022-12-07T17:52:26;2.30;99.90
10042;DHT22;5061;49.068;12.058;2022-12-07T17:56:05;2.30;99.90
10042;DHT22;5061;49.068;12.058;2022-12-07T17:59:28;2.30;99.90
10042;DHT22;5061;49.068;12.058;2022-12-07T18:02:49;2.30;99.90
10042;DHT22;5061;49.068;12.058;2022-12-07T18:06:09;2.30;99.90
10042;DHT22;5061;49.068;12.058;2022-12-07T18:09:30;2.30;99.90
10042;DHT22;5061;49.068;12.058;2022-12-07T18:12:51;2.30;99.90
10042;DHT22;5061;49.068;12.058;2022-12-07T18:16:32;2.30;99.90
10042;DHT22;5061;49.068;12.058;2022-12-07T18:19:54;2.30;99.90
10042;DHT22;5061;49.068;12.058;2022-12-07T18:23:15;2.30;99.90
10042;DHT22;5061;49.068;12.058;2022-12-07T18:26:36;2.30;99.90
10042;DHT22;5061;49.068;12.058;2022-12-07T18:29:56;2.30;99.90
10042;DHT22;5061;49.068;12.058;2022-12-07T18:33:20;2.30;99.90
10042;DHT22;5061;49.068;12.058;2022-12-07T18:36:42;2.30;99.90
10042;DHT22;5061;49.068;12.058;2022-12-07T18:40:05;2.30;99.90
10042;DHT22;5061;49.068;12.058;2022-12-07T18:43:26;2.30;99.90
10042;DHT22;5061;49.068;12.058;2022-12-07T18:46:47;2.30;99.90
10042;DHT22;5061;49.068;12.058;2022-12-07T18:50:08;2.30;99.90
10042;DHT22;5061;49.068;12.058;2022-12-07T18:53:29;2.30;99.90
10042;DHT22;5061;49.068;12.058;2022-12-07T18:56:50;2.30;99.90
10042;DHT22;5061;49.068;12.058;2022-12-07T19:00:11;2.30;99.90
10042;DHT22;5061;49.068;12.058;2022-12-07T19:03:32;2.30;99.90
10042;DHT22;5061;49.068;12.058;2022-12-07T19:06:52;2.30;99.90
10042;DHT22;5061;49.068;12.058;2022-12-07T19:10:13;2.30;99.90
10042;DHT22;5061;49.068;12.058;2022-12-07T19:13:34;2.30;99.90
10042;DHT22;5061;49.068;12.058;2022-12-07T19:16:57;2.30;99.90
10042;DHT22;5061;49.068;12.058;2022-12-07T19:20:18;2.30;99.90
10042;DHT22;5061;49.068;12.058;2022-12-07T19:23:39;2.20;99.90
10042;DHT22;5061;49.068;12.058;2022-12-07T19:27:00;2.30;99.90
10042;DHT22;5061;49.068;12.058;2022-12-07T19:30:23;2.30;99.90
10042;DHT22;5061;49.068;12.058;2022-12-07T19:33:44;2.20;99.90
10042;DHT22;5061;49.068;12.058;2022-12-07T19:37:07;2.30;99.90
10042;DHT22;5061;49.068;12.058;2022-12-07T19:40:28;2.30;99.90
10042;DHT22;5061;49.068;12.058;2022-12-07T19:43:49;2.30;99.90
10042;DHT22;5061;49.068;12.058;2022-12-07T19:47:10;2.20;99.90
10042;DHT22;5061;49.068;12.058;2022-12-07T19:50:34;2.20;99.90
10042;DHT22;5061;49.068;12.058;2022-12-07T19:53:57;2.20;99.90
10042;DHT22;5061;49.068;12.058;2022-12-07T19:57:19;2.20;99.90
10042;DHT22;5061;49.068;12.058;2022-12-07T20:00:40;2.20;99.90
10042;DHT22;5061;49.068;12.058;2022-12-07T20:04:04;2.20;99.90
10042;DHT22;5061;49.068;12.058;2022-12-07T20:07:25;2.20;99.90
10042;DHT22;5061;49.068;12.058;2022-12-07T20:10:48;2.10;99.90
10042;DHT22;5061;49.068;12.058;2022-12-07T20:14:11;2.10;99.90
10042;DHT22;5061;49.068;12.058;2022-12-07T20:17:34;2.10;99.90
10042;DHT22;5061;49.068;12.058;2022-12-07T20:20:57;2.10;99.90
10042;DHT22;5061;49.068;12.058;2022-12-07T20:24:23;2.10;99.90
10042;DHT22;5061;49.068;12.058;2022-12-07T20:27:43;2.10;99.90
10042;DHT22;5061;49.068;12.058;2022-12-07T20:31:04;2.10;99.90
10042;DHT22;5061;49.068;12.058;2022-12-07T20:34:27;2.10;99.90
10042;DHT22;5061;49.068;12.058;2022-12-07T20:37:48;2.00;99.90
10042;DHT22;5061;49.068;12.058;2022-12-07T20:41:13;2.00;99.90
10042;DHT22;5061;49.068;12.058;2022-12-07T20:44:52;2.00;99.90
10042;DHT22;5061;49.068;12.058;2022-12-07T20:48:13;1.90;99.90
10042;DHT22;5061;49.068;12.058;2022-12-07T20:51:34;1.90;99.90
10042;DHT22;5061;49.068;12.058;2022-12-07T20:54:55;1.90;99.90
10042;DHT22;5061;49.068;12.058;2022-12-07T20:58:16;1.80;99.90
10042;DHT22;5061;49.068;12.058;2022-12-07T21:01:39;1.80;99.90
10042;DHT22;5061;49.068;12.058;2022-12-07T21:05:00;1.80;99.90
10042;DHT22;5061;49.068;12.058;2022-12-07T21:08:21;1.80;99.90
10042;DHT22;5061;49.068;12.058;2022-12-07T21:11:44;1.80;99.90
10042;DHT22;5061;49.068;12.058;2022-12-07T21:15:06;1.70;99.90
10042;DHT22;5061;49.068;12.058;2022-12-07T21:18:28;1.70;99.90
10042;DHT22;5061;49.068;12.058;2022-12-07T21:21:52;1.70;99.90
10042;DHT22;5061;49.068;12.058;2022-12-07T21:25:12;1.70;99.90
10042;DHT22;5061;49.068;12.058;2022-12-07T21:28:36;1.70;99.90
10042;DHT22;5061;49.068;12.058;2022-12-07T21:31:56;1.70;99.90
10042;DHT22;5061;49.068;12.058;2022-12-07T21:35:17;1.70;99.90
10042;DHT22;5061;49.068;12.058;2022-12-07T21:38:38;1.60;99.90
10042;DHT22;5061;49.068;12.058;2022-12-07T21:41:58;1.60;99.90
10042;DHT22;5061;49.068;12.058;2022-12-07T21:45:19;1.60;99.90
10042;DHT22;5061;49.068;12.058;2022-12-07T21:48:53;1.50;99.90
10042;DHT22;5061;49.068;12.058;2022-12-07T21:52:14;1.50;99.90
10042;DHT22;5061;49.068;12.058;2022-12-07T21:55:41;1.40;99.90
10042;DHT22;5061;49.068;12.058;2022-12-07T21:59:12;1.40;99.90
10042;DHT22;5061;49.068;12.058;2022-12-07T22:02:33;1.40;99.90
10042;DHT22;5061;49.068;12.058;2022-12-07T22:06:01;1.30;99.90
10042;DHT22;5061;49.068;12.058;2022-12-07T22:09:22;1.30;99.90
10042;DHT22;5061;49.068;12.058;2022-12-07T22:12:42;1.30;99.90
10042;DHT22;5061;49.068;12.058;2022-12-07T22:16:03;1.20;99.90
10042;DHT22;5061;49.068;12.058;2022-12-07T22:19:25;1.20;99.90
10042;DHT22;5061;49.068;12.058;2022-12-07T22:22:46;1.20;99.90
10042;DHT22;5061;49.068;12.058;2022-12-07T22:26:08;1.10;99.90
10042;DHT22;5061;49.068;12.058;2022-12-07T22:29:29;1.10;99.90
10042;DHT22;5061;49.068;12.058;2022-12-07T22:32:49;1.10;99.90
10042;DHT22;5061;49.068;12.058;2022-12-07T22:36:10;1.10;99.90
10042;DHT22;5061;49.068;12.058;2022-12-07T22:39:31;1.10;99.90
10042;DHT22;5061;49.068;12.058;2022-12-07T22:42:52;1.00;99.90
10042;DHT22;5061;49.068;12.058;2022-12-07T22:46:12;1.00;99.90
10042;DHT22;5061;49.068;12.058;2022-12-07T22:49:33;1.00;99.90
10042;DHT22;5061;49.068;12.058;2022-12-07T22:52:54;1.00;99.90
10042;DHT22;5061;49.068;12.058;2022-12-07T22:56:14;1.00;99.90
10042;DHT22;5061;49.068;12.058;2022-12-07T22:59:35;0.90;99.90
10042;DHT22;5061;49.068;12.058;2022-12-07T23:02:56;0.90;99.90
10042;DHT22;5061;49.068;12.058;2022-12-07T23:06:20;0.90;99.90
10042;DHT22;5061;49.068;12.058;2022-12-07T23:09:41;0.90;99.90
10042;DHT22;5061;49.068;12.058;2022-12-07T23:13:01;0.90;99.90
10042;DHT22;5061;49.068;12.058;2022-12-07T23:16:41;0.90;99.90
10042;DHT22;5061;49.068;12.058;2022-12-07T23:20:04;1.00;99.90
10042;DHT22;5061;49.068;12.058;2022-12-07T23:23:25;1.00;99.90
10042;DHT22;5061;49.068;12.058;2022-12-07T23:26:46;1.00;99.90
10042;DHT22;5061;49.068;12.058;2022-12-07T23:30:07;1.00;99.90
10042;DHT22;5061;49.068;12.058;2022-12-07T23:33:28;1.00;99.90
10042;DHT22;5061;49.068;12.058;2022-12-07T23:36:48;1.00;99.90
10042;DHT22;5061;49.068;12.058;2022-12-07T23:40:09;1.00;99.90
10042;DHT22;5061;49.068;12.058;2022-12-07T23:43:29;1.00;99.90
10042;DHT22;5061;49.068;12.058;2022-12-07T23:46:50;0.90;99.90
10042;DHT22;5061;49.068;12.058;2022-12-07T23:50:11;0.90;99.90
10042;DHT22;5061;49.068;12.058;2022-12-07T23:53:33;0.90;99.90
10042;DHT22;5061;49.068;12.058;2022-12-07T23:56:53;0.80;99.90
